Surabaya Perak, Indonesia

06:56 PM WIB on November 28, 2014 (GMT +0700)
Juanda | Change Station
CLOSE
Current Station
Airport
Location: Juanda,
Elevation: 10 ft
Nearby Weather Stations

Elev 10 ft 7.38 °S, 112.79 °E | Updated 26 minutes ago

Haze
Pandangan Kabur
84 °F
Feels Like 88 °F
N
1
Angin Variable Angin from Variable

Siang Ini
High -- | Low -- °F
--% Chance of Precip.
Yesterday
High -- | Low -- °F
Precip. -- Inch
5:01 AM 5:31 PM
Waxing Crescent, 39% visible
Tekanan 29.77 Inch
Jarak Pandang 3.1 Mil
Awan Few 2000 ft
Ideks Panas 88 °F
Titik Embun 70 °F
Kelembaban 62%
Rainfall 0.00 Inch
Snow Depth Not available.
UV 0 out of 12
Pollen Not available.
Air Quality Not available.
Flu Activity Not available.
METAR WARR 281130Z VRB01KT 5000 HZ FEW020CB 29/21 Q1008 NOSIG

More Conditions Fewer Conditions

Tekanan 29.77 Inch
Jarak Pandang 3.1 Mil
Awan Few 2000 ft
Ideks Panas 88 °F
Titik Embun 70 °F
Kelembaban 62%
Rainfall 0.00 Inch
Snow Depth Not available.
UV 0 out of 12
Pollen Not available.
Air Quality Not available.
Flu Activity Not available.
METAR WARR 281130Z VRB01KT 5000 HZ FEW020CB 29/21 Q1008 NOSIG

More Conditions Fewer Conditions

10-Day Weather Forecast

Almanac

Astronomi

Nov. 28, 2014 Rise Set
Actual Time
Civil Twilight
Nautical Twilight
Astronomical Twilight
Moon
Length Of Visible Light
Lama Satu Hari
Tomorrow will be .
, % of the Moon is Illuminated

Today's Extremes

Country Highs Country Lows

Community

WunderPhotos

Upload Photos

1,774,198 photos uploaded!

WunderBlogs® & News

Nearby

Air Quality

  Air Quality AQ Index Pollutant
Not available.

Snow Depth

Station Depth Elevation

Earthquake Activity

City Distance Mag. Time & Date
Minimum magnitude displayed is 2.5.

Coastal Water Temperatures

Lokasi Temperatur

Nearby Weather Stations